Time;durP1;ratioP1;P1;durP2;ratioP2;P2;SDS_P1;SDS_P2;PMS_P1;PMS_P2;Temp;Humidity;BMP_temperature;BMP_pressure;BME280_temperature;BME280_humidity;BME280_pressure;Samples;Min_cycle;Max_cycle;Signal;HPM_P1;HPM_P2
2021/12/21 00:01:57;;;;;;;;;19.50;16.50;;;;;;;;5081172;27;46077;-49
2021/12/21 00:04:22;;;;;;;;;17.50;16.00;;;;;;;;5098073;27;45507;-48
2021/12/21 00:06:47;;;;;;;;;19.50;18.25;;;;;;;;5097623;27;45316;-48
2021/12/21 00:09:12;;;;;;;;;15.50;15.50;;;;;;;;5099350;27;45604;-50
2021/12/21 00:11:38;;;;;;;;;20.00;18.50;;;;;;;;5096698;27;46071;-48
2021/12/21 00:14:20;;;;;;;;;13.50;13.50;;;;;;;;5098732;27;45725;-49
2021/12/21 00:21:51;;;;;;;;;16.00;15.00;;;;;;;;5098376;27;45936;-50
2021/12/21 00:24:21;;;;;;;;;15.00;14.00;;;;;;;;5098826;27;45373;-47
2021/12/21 00:26:46;;;;;;;;;17.00;15.50;;;;;;;;5099004;27;45318;-49
2021/12/21 00:29:12;;;;;;;;;18.75;16.25;;;;;;;;5098924;27;45460;-46
2021/12/21 00:31:37;;;;;;;;;21.25;15.75;;;;;;;;5095934;27;45601;-49
2021/12/21 00:34:04;;;;;;;;;18.00;15.00;;;;;;;;5078730;27;45543;-46
2021/12/21 00:36:30;;;;;;;;;14.75;14.00;;;;;;;;5098824;27;45489;-47
2021/12/21 00:38:56;;;;;;;;;20.50;15.75;;;;;;;;5098416;27;45554;-47
2021/12/21 00:41:22;;;;;;;;;15.75;15.75;;;;;;;;5098754;27;46195;-46
2021/12/21 00:43:47;;;;;;;;;13.50;13.50;;;;;;;;5097200;27;45312;-50
2021/12/21 00:46:13;;;;;;;;;23.00;16.00;;;;;;;;5094498;27;45408;-49
2021/12/21 00:48:47;;;;;;;;;10.75;10.75;;;;;;;;5098206;27;45452;-46
2021/12/21 00:51:12;;;;;;;;;14.50;14.00;;;;;;;;5096047;27;45719;-47
2021/12/21 00:53:39;;;;;;;;;11.75;11.75;;;;;;;;5098709;27;45940;-48
2021/12/21 00:56:05;;;;;;;;;14.75;14.50;;;;;;;;5097684;27;45468;-47
2021/12/21 00:58:30;;;;;;;;;18.75;15.00;;;;;;;;5097941;27;45430;-48
2021/12/21 01:00:56;;;;;;;;;14.50;14.50;;;;;;;;5098355;27;45477;-49
2021/12/21 01:03:21;;;;;;;;;19.00;16.75;;;;;;;;5097591;27;45379;-49
2021/12/21 01:06:01;;;;;;;;;20.50;15.75;;;;;;;;5098213;27;45261;-52
2021/12/21 01:08:29;;;;;;;;;13.50;12.25;;;;;;;;5098928;27;45440;-48
2021/12/21 01:11:06;;;;;;;;;14.25;14.25;;;;;;;;5097661;27;45440;-48
2021/12/21 01:13:47;;;;;;;;;14.00;12.50;;;;;;;;5098542;27;45226;-49
2021/12/21 01:16:25;;;;;;;;;12.50;11.75;;;;;;;;5095423;27;45512;-50
2021/12/21 01:21:22;;;;;;;;;16.25;13.50;;;;;;;;5096256;27;46029;-50
2021/12/21 01:26:38;;;;;;;;;17.50;14.50;;;;;;;;5080234;27;45310;-46
2021/12/21 01:31:51;;;;;;;;;14.25;12.75;;;;;;;;5090958;27;45389;-49
2021/12/21 01:40:26;;;;;;;;;14.75;12.75;;;;;;;;5097837;27;45438;-49
2021/12/21 01:50:26;;;;;;;;;15.00;13.75;;;;;;;;5097026;27;45477;-47
2021/12/21 01:52:51;;;;;;;;;15.25;14.00;;;;;;;;5097267;27;46118;-48
2021/12/21 01:55:17;;;;;;;;;15.25;15.25;;;;;;;;5097074;27;45341;-51
2021/12/21 01:57:42;;;;;;;;;16.50;14.00;;;;;;;;5097848;27;45456;-51
2021/12/21 02:00:08;;;;;;;;;17.75;14.00;;;;;;;;5087186;27;45289;-49
2021/12/21 02:02:33;;;;;;;;;14.00;14.00;;;;;;;;5096789;27;47000;-47
2021/12/21 02:04:59;;;;;;;;;16.50;14.75;;;;;;;;5095832;27;45592;-46
2021/12/21 02:07:28;;;;;;;;;18.75;15.75;;;;;;;;5096011;27;45463;-47
2021/12/21 02:09:53;;;;;;;;;19.75;15.00;;;;;;;;5097303;27;45579;-52
2021/12/21 02:12:21;;;;;;;;;14.75;14.00;;;;;;;;5096553;27;46071;-50
2021/12/21 02:14:53;;;;;;;;;14.00;13.25;;;;;;;;5095380;27;45501;-48
2021/12/21 02:23:05;;;;;;;;;15.50;14.00;;;;;;;;5088773;27;45317;-51
2021/12/21 02:30:58;;;;;;;;;13.75;13.75;;;;;;;;5076502;27;45462;-49
2021/12/21 02:33:25;;;;;;;;;17.50;15.00;;;;;;;;5095696;27;45915;-47
2021/12/21 02:35:51;;;;;;;;;15.50;14.00;;;;;;;;5093188;27;45488;-48
2021/12/21 02:38:16;;;;;;;;;24.75;19.25;;;;;;;;5095479;27;45499;-47
2021/12/21 02:40:41;;;;;;;;;18.50;15.00;;;;;;;;5087220;27;45416;-50
2021/12/21 02:43:08;;;;;;;;;17.75;15.75;;;;;;;;5096933;27;45755;-48
2021/12/21 02:45:33;;;;;;;;;15.75;15.00;;;;;;;;5098027;27;45385;-47
2021/12/21 02:47:58;;;;;;;;;14.25;14.25;;;;;;;;5095530;27;45526;-50
2021/12/21 02:50:23;;;;;;;;;20.00;17.50;;;;;;;;5096471;27;45970;-50
2021/12/21 02:52:50;;;;;;;;;15.50;15.00;;;;;;;;5096470;27;46709;-49
2021/12/21 02:55:16;;;;;;;;;14.00;14.00;;;;;;;;5089484;27;45433;-51
2021/12/21 02:57:42;;;;;;;;;12.25;12.25;;;;;;;;5091704;27;45351;-47
2021/12/21 03:00:08;;;;;;;;;13.75;13.75;;;;;;;;5094387;27;45699;-50
2021/12/21 03:02:33;;;;;;;;;14.00;14.00;;;;;;;;5076866;27;45245;-50
2021/12/21 03:04:59;;;;;;;;;11.00;10.25;;;;;;;;5096404;27;45139;-49
2021/12/21 03:09:58;;;;;;;;;14.25;14.25;;;;;;;;5096960;27;45175;-48
2021/12/21 03:14:49;;;;;;;;;15.75;14.75;;;;;;;;5096314;27;45314;-48
2021/12/21 03:17:15;;;;;;;;;16.25;15.75;;;;;;;;5095174;27;45464;-51
2021/12/21 03:19:41;;;;;;;;;14.00;14.00;;;;;;;;5095808;27;45651;-49
2021/12/21 03:22:07;;;;;;;;;16.25;15.50;;;;;;;;5096724;27;47187;-50
2021/12/21 03:24:32;;;;;;;;;21.75;18.75;;;;;;;;5099110;27;45476;-53
2021/12/21 03:26:58;;;;;;;;;17.75;16.00;;;;;;;;5081317;27;45419;-51
2021/12/21 03:29:23;;;;;;;;;20.00;14.50;;;;;;;;5098682;27;45548;-48
2021/12/21 03:31:48;;;;;;;;;13.00;13.00;;;;;;;;5099998;27;45357;-47
2021/12/21 03:34:14;;;;;;;;;10.75;10.25;;;;;;;;5099437;27;45429;-51
2021/12/21 03:36:40;;;;;;;;;17.50;14.75;;;;;;;;5099744;27;46145;-47
2021/12/21 03:39:08;;;;;;;;;16.00;13.00;;;;;;;;5099729;27;45396;-50
2021/12/21 03:41:34;;;;;;;;;22.50;19.50;;;;;;;;5099414;27;46021;-50
2021/12/21 03:44:00;;;;;;;;;15.75;15.75;;;;;;;;5099873;27;45290;-47
2021/12/21 03:46:26;;;;;;;;;14.75;14.75;;;;;;;;5099926;27;45290;-49
2021/12/21 03:48:51;;;;;;;;;16.25;13.75;;;;;;;;5099172;27;45454;-50
2021/12/21 03:51:17;;;;;;;;;15.50;14.00;;;;;;;;5099298;27;45345;-46
2021/12/21 03:53:43;;;;;;;;;19.00;13.75;;;;;;;;5099855;27;45419;-48
2021/12/21 03:58:53;;;;;;;;;16.25;14.00;;;;;;;;5099119;27;45344;-52
2021/12/21 04:01:18;;;;;;;;;13.00;11.50;;;;;;;;5092681;27;45850;-47
2021/12/21 04:03:44;;;;;;;;;18.00;16.25;;;;;;;;5099797;27;45436;-48
2021/12/21 04:06:09;;;;;;;;;17.75;14.75;;;;;;;;5099454;27;45294;-49
2021/12/21 04:08:34;;;;;;;;;14.00;14.00;;;;;;;;5099545;27;45581;-50
2021/12/21 04:11:00;;;;;;;;;18.00;15.75;;;;;;;;5099287;27;46621;-50
2021/12/21 04:13:26;;;;;;;;;18.00;15.00;;;;;;;;5098620;27;45347;-51
2021/12/21 04:15:53;;;;;;;;;15.50;15.00;;;;;;;;5097873;27;45339;-48
2021/12/21 04:18:20;;;;;;;;;15.25;13.75;;;;;;;;5098526;27;45315;-49
2021/12/21 04:20:46;;;;;;;;;16.25;16.25;;;;;;;;5099100;27;45440;-48
2021/12/21 04:23:11;;;;;;;;;15.00;14.00;;;;;;;;5098970;27;45364;-48
2021/12/21 04:25:36;;;;;;;;;15.25;15.25;;;;;;;;5098960;27;45282;-49
2021/12/21 04:28:02;;;;;;;;;18.50;13.25;;;;;;;;5098936;27;45244;-48
2021/12/21 04:30:28;;;;;;;;;15.50;13.50;;;;;;;;5098772;27;45562;-46
2021/12/21 04:32:53;;;;;;;;;15.50;15.00;;;;;;;;5098008;27;45422;-48
2021/12/21 04:35:20;;;;;;;;;14.75;13.75;;;;;;;;5098960;27;45437;-47
2021/12/21 04:37:54;;;;;;;;;16.25;15.00;;;;;;;;5099198;27;45426;-50
2021/12/21 04:40:24;;;;;;;;;14.50;14.25;;;;;;;;5098560;27;46514;-48
2021/12/21 04:42:49;;;;;;;;;16.50;14.25;;;;;;;;5098744;27;45646;-48
2021/12/21 04:45:15;;;;;;;;;13.50;11.00;;;;;;;;5098382;27;45346;-48
2021/12/21 04:47:40;;;;;;;;;20.50;14.50;;;;;;;;5099005;27;45366;-51
2021/12/21 04:50:05;;;;;;;;;14.25;13.25;;;;;;;;5098827;27;45496;-49
2021/12/21 04:52:30;;;;;;;;;16.50;13.50;;;;;;;;5098996;27;45312;-49
2021/12/21 04:54:56;;;;;;;;;14.75;11.75;;;;;;;;5099201;27;45323;-47
2021/12/21 04:57:21;;;;;;;;;22.50;16.25;;;;;;;;5098141;27;45290;-47
2021/12/21 04:59:46;;;;;;;;;13.50;13.25;;;;;;;;5098739;27;46084;-50
2021/12/21 05:02:12;;;;;;;;;15.00;15.00;;;;;;;;5098289;27;45478;-47
2021/12/21 05:04:38;;;;;;;;;13.75;13.75;;;;;;;;5098543;27;45311;-48
2021/12/21 05:07:04;;;;;;;;;12.25;12.25;;;;;;;;5097895;27;45453;-46
2021/12/21 05:09:37;;;;;;;;;0.00;0.00;;;;;;;;5098403;27;45335;-48
2021/12/21 05:12:05;;;;;;;;;14.50;13.00;;;;;;;;5097688;27;45241;-47
2021/12/21 05:14:30;;;;;;;;;15.00;11.50;;;;;;;;5098825;27;45349;-49
2021/12/21 05:16:55;;;;;;;;;14.50;13.00;;;;;;;;5097962;27;45623;-49
2021/12/21 05:19:20;;;;;;;;;14.00;11.00;;;;;;;;5097033;27;46450;-48
2021/12/21 05:21:46;;;;;;;;;16.75;16.75;;;;;;;;5098541;27;45428;-46
2021/12/21 05:24:11;;;;;;;;;18.50;13.25;;;;;;;;5098094;27;45421;-48
2021/12/21 05:26:37;;;;;;;;;18.00;14.00;;;;;;;;5098420;27;45564;-49
2021/12/21 05:29:02;;;;;;;;;15.00;14.25;;;;;;;;5098245;27;45438;-48
2021/12/21 05:31:28;;;;;;;;;15.25;14.00;;;;;;;;5097487;27;45527;-48
2021/12/21 05:33:53;;;;;;;;;10.50;10.50;;;;;;;;5098552;27;45333;-51
2021/12/21 05:36:20;;;;;;;;;14.25;13.00;;;;;;;;5098430;27;45560;-49
2021/12/21 05:38:49;;;;;;;;;15.50;14.00;;;;;;;;5098294;27;46077;-49
2021/12/21 05:41:23;;;;;;;;;17.00;15.00;;;;;;;;5096166;27;45444;-50
2021/12/21 05:43:48;;;;;;;;;16.75;16.75;;;;;;;;5097022;27;45449;-49
2021/12/21 05:46:13;;;;;;;;;13.50;11.00;;;;;;;;5096487;27;45541;-47
2021/12/21 05:48:38;;;;;;;;;14.00;12.00;;;;;;;;5097405;27;46105;-50
2021/12/21 05:51:04;;;;;;;;;14.25;13.25;;;;;;;;5077496;28;45403;-51
2021/12/21 05:53:29;;;;;;;;;13.75;12.75;;;;;;;;5077238;28;45457;-47
2021/12/21 05:55:54;;;;;;;;;13.25;11.00;;;;;;;;5077346;28;45484;-48
2021/12/21 05:58:19;;;;;;;;;15.00;15.00;;;;;;;;5093246;27;46292;-48
2021/12/21 06:00:44;;;;;;;;;14.00;12.75;;;;;;;;5097132;27;45574;-46
2021/12/21 06:03:10;;;;;;;;;13.00;11.00;;;;;;;;5097226;27;45370;-48
2021/12/21 06:05:35;;;;;;;;;14.75;10.75;;;;;;;;5097558;27;45444;-47
2021/12/21 06:08:00;;;;;;;;;13.00;13.00;;;;;;;;5097101;27;45449;-48
2021/12/21 06:10:36;;;;;;;;;14.25;13.25;;;;;;;;5097435;27;45278;-49
2021/12/21 06:26:00;;;;;;;;;12.75;10.00;;;;;;;;5096588;27;45333;-48
2021/12/21 06:28:25;;;;;;;;;14.00;14.00;;;;;;;;5096781;27;45389;-49
2021/12/21 06:30:51;;;;;;;;;13.25;13.00;;;;;;;;5096575;27;45483;-48
2021/12/21 06:33:17;;;;;;;;;14.00;11.50;;;;;;;;5097206;27;45255;-50
2021/12/21 06:35:42;;;;;;;;;18.25;17.00;;;;;;;;5096528;27;45543;-49
2021/12/21 06:38:07;;;;;;;;;17.25;14.00;;;;;;;;5097104;27;45233;-51
2021/12/21 06:40:33;;;;;;;;;19.75;13.25;;;;;;;;5097362;27;45225;-49
2021/12/21 06:43:01;;;;;;;;;19.00;15.75;;;;;;;;5097519;27;45328;-51
2021/12/21 06:45:43;;;;;;;;;16.75;13.75;;;;;;;;5096634;27;45372;-50
2021/12/21 06:53:37;;;;;;;;;18.50;14.75;;;;;;;;5097026;27;45371;-48
2021/12/21 06:56:03;;;;;;;;;11.75;11.75;;;;;;;;5096277;27;45424;-47
2021/12/21 06:58:28;;;;;;;;;17.25;17.25;;;;;;;;5094316;27;45715;-49
2021/12/21 07:00:53;;;;;;;;;13.00;13.00;;;;;;;;5096090;27;45464;-49
2021/12/21 07:03:19;;;;;;;;;15.25;14.00;;;;;;;;5096782;27;45720;-53
2021/12/21 07:05:45;;;;;;;;;17.25;13.25;;;;;;;;5096664;27;45507;-51
2021/12/21 07:08:15;;;;;;;;;14.00;11.25;;;;;;;;5095632;27;45517;-49
2021/12/21 07:10:41;;;;;;;;;20.75;16.25;;;;;;;;5095978;27;45210;-49
2021/12/21 07:18:34;;;;;;;;;14.00;10.00;;;;;;;;5096279;27;45364;-53
2021/12/21 07:21:00;;;;;;;;;13.25;13.25;;;;;;;;5095687;27;45277;-50
2021/12/21 07:23:26;;;;;;;;;14.75;14.00;;;;;;;;5096369;27;45249;-48
2021/12/21 07:25:51;;;;;;;;;22.00;14.50;;;;;;;;5095854;27;45354;-49
2021/12/21 07:28:16;;;;;;;;;13.75;13.00;;;;;;;;5096614;27;45393;-47
2021/12/21 07:30:42;;;;;;;;;14.00;12.00;;;;;;;;5095485;27;45270;-50
2021/12/21 07:33:07;;;;;;;;;13.25;12.00;;;;;;;;5095453;27;45437;-51
2021/12/21 07:35:33;;;;;;;;;10.00;10.00;;;;;;;;5096111;27;45429;-51
2021/12/21 07:38:00;;;;;;;;;14.00;13.50;;;;;;;;5095735;27;45801;-48
2021/12/21 07:40:25;;;;;;;;;13.50;13.50;;;;;;;;5095776;27;45506;-50
2021/12/21 07:42:50;;;;;;;;;12.00;11.25;;;;;;;;5095823;27;45410;-48
2021/12/21 07:45:15;;;;;;;;;16.50;11.25;;;;;;;;5095970;27;45438;-46
2021/12/21 07:47:41;;;;;;;;;12.25;12.25;;;;;;;;5095558;27;45512;-46
2021/12/21 07:50:06;;;;;;;;;17.75;13.50;;;;;;;;5096079;27;45358;-48
2021/12/21 07:52:32;;;;;;;;;21.75;17.00;;;;;;;;5095956;27;45482;-47
2021/12/21 07:54:57;;;;;;;;;13.25;13.25;;;;;;;;5095766;27;45412;-48
2021/12/21 07:57:22;;;;;;;;;18.00;16.50;;;;;;;;5095939;27;45441;-47
2021/12/21 07:59:48;;;;;;;;;15.00;15.00;;;;;;;;5095947;27;45441;-48
2021/12/21 08:02:13;;;;;;;;;12.75;12.50;;;;;;;;5094243;27;45749;-46
2021/12/21 08:04:40;;;;;;;;;12.50;12.50;;;;;;;;5095624;27;45559;-47
2021/12/21 08:07:11;;;;;;;;;15.25;12.00;;;;;;;;5095491;27;46200;-50
2021/12/21 08:09:43;;;;;;;;;17.75;16.75;;;;;;;;5097872;27;45281;-50
2021/12/21 08:14:37;;;;;;;;;15.75;15.00;;;;;;;;5098799;27;45467;-49
2021/12/21 08:17:03;;;;;;;;;14.00;14.00;;;;;;;;5094631;27;46296;-50
2021/12/21 08:19:28;;;;;;;;;17.25;16.00;;;;;;;;5095068;27;45336;-50
2021/12/21 08:21:53;;;;;;;;;16.50;16.00;;;;;;;;5099657;27;45282;-49
2021/12/21 08:24:19;;;;;;;;;14.75;14.75;;;;;;;;5097802;27;45425;-47
2021/12/21 08:26:47;;;;;;;;;18.25;15.50;;;;;;;;5098106;27;47288;-48
2021/12/21 08:29:12;;;;;;;;;17.00;16.50;;;;;;;;5097028;27;45300;-49
2021/12/21 08:31:38;;;;;;;;;16.25;16.25;;;;;;;;5098330;27;45420;-48
2021/12/21 08:34:03;;;;;;;;;14.50;14.50;;;;;;;;5097533;27;45494;-50
2021/12/21 08:36:28;;;;;;;;;9.00;8.75;;;;;;;;5098477;27;45478;-47
2021/12/21 08:38:54;;;;;;;;;14.00;12.00;;;;;;;;5098914;27;45397;-48
2021/12/21 08:41:20;;;;;;;;;21.25;17.50;;;;;;;;5099043;27;45398;-49
2021/12/21 08:43:46;;;;;;;;;14.00;13.00;;;;;;;;5096864;27;45603;-50
2021/12/21 08:46:11;;;;;;;;;14.50;13.25;;;;;;;;5099198;27;46299;-49
2021/12/21 08:48:36;;;;;;;;;15.50;15.50;;;;;;;;5097814;27;45415;-49
2021/12/21 08:51:03;;;;;;;;;19.25;15.25;;;;;;;;5098399;27;45509;-47
2021/12/21 08:53:29;;;;;;;;;18.25;15.25;;;;;;;;5098443;27;45389;-47
2021/12/21 08:55:54;;;;;;;;;18.50;18.50;;;;;;;;5096571;27;45391;-49
2021/12/21 08:58:20;;;;;;;;;16.75;15.75;;;;;;;;5090143;27;45418;-46
2021/12/21 09:00:45;;;;;;;;;17.50;13.75;;;;;;;;5096850;27;45373;-47
2021/12/21 09:03:11;;;;;;;;;18.25;16.25;;;;;;;;5098310;27;45439;-46
2021/12/21 09:05:37;;;;;;;;;17.00;13.50;;;;;;;;5098410;27;46309;-49
2021/12/21 09:08:03;;;;;;;;;23.00;16.75;;;;;;;;5097891;27;45488;-48
2021/12/21 09:10:28;;;;;;;;;17.75;16.50;;;;;;;;5097257;27;45649;-49
2021/12/21 09:12:54;;;;;;;;;19.25;15.25;;;;;;;;5096608;27;45563;-48
2021/12/21 09:15:21;;;;;;;;;19.25;17.50;;;;;;;;5096431;27;47519;-49
2021/12/21 09:17:47;;;;;;;;;21.50;16.00;;;;;;;;5097610;27;45464;-47
2021/12/21 09:20:13;;;;;;;;;21.00;17.00;;;;;;;;5095000;27;45368;-48
2021/12/21 09:22:39;;;;;;;;;14.00;12.00;;;;;;;;5085088;27;45500;-47
2021/12/21 09:25:05;;;;;;;;;19.00;14.00;;;;;;;;5097205;27;45523;-47
2021/12/21 09:27:30;;;;;;;;;21.75;17.75;;;;;;;;5096351;27;45437;-50
2021/12/21 09:29:55;;;;;;;;;21.75;18.25;;;;;;;;5096011;27;45533;-47
2021/12/21 09:32:21;;;;;;;;;27.00;22.50;;;;;;;;5096488;27;45411;-49
2021/12/21 09:34:46;;;;;;;;;19.75;19.75;;;;;;;;5100357;27;46317;-49
2021/12/21 09:37:16;;;;;;;;;19.50;16.50;;;;;;;;5094955;27;45403;-49
2021/12/21 09:39:42;;;;;;;;;20.75;16.75;;;;;;;;5094276;27;45436;-52
2021/12/21 09:42:08;;;;;;;;;17.75;16.50;;;;;;;;5097046;27;45586;-49
2021/12/21 09:44:33;;;;;;;;;21.50;16.00;;;;;;;;5096222;27;46254;-46
2021/12/21 09:46:59;;;;;;;;;24.25;20.50;;;;;;;;5097469;27;45232;-47
2021/12/21 09:49:25;;;;;;;;;23.75;19.75;;;;;;;;5097638;27;45274;-47
2021/12/21 09:51:50;;;;;;;;;18.50;18.00;;;;;;;;5096482;27;45229;-49
2021/12/21 09:54:16;;;;;;;;;25.50;20.00;;;;;;;;5096696;27;45441;-47
2021/12/21 09:56:42;;;;;;;;;102.00;89.67;;;;;;;;5097693;27;45430;-47
2021/12/21 09:59:07;;;;;;;;;96.33;78.33;;;;;;;;5096687;27;45362;-51
2021/12/21 10:01:32;;;;;;;;;22.50;18.25;;;;;;;;5096179;27;45393;-50
2021/12/21 10:03:57;;;;;;;;;19.50;17.50;;;;;;;;5097424;27;45369;-50
2021/12/21 10:06:22;;;;;;;;;17.25;17.25;;;;;;;;5097256;27;45381;-48
2021/12/21 10:08:48;;;;;;;;;25.75;21.50;;;;;;;;5097480;27;45751;-49
2021/12/21 10:11:18;;;;;;;;;30.25;26.00;;;;;;;;5096214;27;45671;-49
2021/12/21 10:13:43;;;;;;;;;24.00;20.75;;;;;;;;5097614;27;46459;-49
2021/12/21 10:16:10;;;;;;;;;26.25;22.25;;;;;;;;5095542;27;45300;-51
2021/12/21 10:18:39;;;;;;;;;25.00;20.00;;;;;;;;5095952;27;45500;-48
2021/12/21 10:21:05;;;;;;;;;16.00;16.00;;;;;;;;5095833;27;45516;-49
2021/12/21 10:23:33;;;;;;;;;21.00;19.00;;;;;;;;5097065;27;45444;-50
2021/12/21 10:26:01;;;;;;;;;24.75;22.25;;;;;;;;5097348;27;45455;-48
2021/12/21 10:28:26;;;;;;;;;25.50;25.25;;;;;;;;5096935;27;45394;-49
2021/12/21 10:30:53;;;;;;;;;21.00;21.00;;;;;;;;5096777;27;45642;-50
2021/12/21 10:33:18;;;;;;;;;29.00;22.00;;;;;;;;5097107;27;46557;-48
2021/12/21 10:35:43;;;;;;;;;24.00;22.75;;;;;;;;5097386;27;45316;-50
2021/12/21 10:38:08;;;;;;;;;30.00;25.50;;;;;;;;5096891;27;45580;-49
2021/12/21 10:40:34;;;;;;;;;26.75;21.50;;;;;;;;5097368;27;45702;-52
2021/12/21 10:43:01;;;;;;;;;25.00;22.75;;;;;;;;5097228;27;45422;-48
2021/12/21 10:45:28;;;;;;;;;25.00;21.75;;;;;;;;5097067;27;45280;-46
2021/12/21 10:47:54;;;;;;;;;20.50;18.75;;;;;;;;5097308;27;45310;-48
2021/12/21 10:50:19;;;;;;;;;27.25;23.25;;;;;;;;5096680;27;45542;-48
2021/12/21 10:52:49;;;;;;;;;28.00;24.50;;;;;;;;5096672;27;46637;-49
2021/12/21 10:55:14;;;;;;;;;21.50;21.50;;;;;;;;5097002;27;45441;-48
2021/12/21 10:57:40;;;;;;;;;26.75;25.75;;;;;;;;5097006;27;45356;-47
2021/12/21 11:00:08;;;;;;;;;28.00;25.50;;;;;;;;5096477;27;45375;-48
2021/12/21 11:02:35;;;;;;;;;26.75;25.75;;;;;;;;5097016;27;46493;-48
2021/12/21 11:05:05;;;;;;;;;31.00;29.25;;;;;;;;5095369;27;45394;-48
2021/12/21 11:07:43;;;;;;;;;34.00;29.75;;;;;;;;5096655;27;45353;-50
2021/12/21 11:10:14;;;;;;;;;32.25;28.00;;;;;;;;5096543;27;45312;-47
2021/12/21 11:12:50;;;;;;;;;26.25;25.25;;;;;;;;5096226;27;45306;-50
2021/12/21 11:15:17;;;;;;;;;30.50;28.75;;;;;;;;5096486;27;45414;-47
2021/12/21 11:17:43;;;;;;;;;27.25;25.00;;;;;;;;5096690;27;45291;-50
2021/12/21 11:20:09;;;;;;;;;29.50;26.00;;;;;;;;5096478;27;45544;-47
2021/12/21 11:22:35;;;;;;;;;31.75;26.50;;;;;;;;5096117;27;46276;-51
2021/12/21 11:25:01;;;;;;;;;32.75;27.50;;;;;;;;5096217;27;45246;-49
2021/12/21 11:27:27;;;;;;;;;32.00;26.50;;;;;;;;5096692;27;45399;-49
2021/12/21 11:29:56;;;;;;;;;26.50;26.50;;;;;;;;5096595;27;45156;-50
2021/12/21 11:32:23;;;;;;;;;45.75;40.25;;;;;;;;5093831;27;45365;-48
2021/12/21 11:37:20;;;;;;;;;33.25;28.50;;;;;;;;5096311;27;45313;-47
2021/12/21 11:37:44;;;;;;;;;28.50;26.50;;;;;;;;5096237;27;45425;-51
2021/12/21 11:40:10;;;;;;;;;28.50;26.00;;;;;;;;5096278;27;45240;-47
2021/12/21 11:42:51;;;;;;;;;29.25;26.00;;;;;;;;5096741;27;46401;-51
2021/12/21 11:45:23;;;;;;;;;28.50;28.50;;;;;;;;5099176;27;45391;-50
2021/12/21 11:48:06;;;;;;;;;33.75;27.25;;;;;;;;5099626;27;45323;-52
2021/12/21 11:50:32;;;;;;;;;33.75;31.00;;;;;;;;5099576;27;45235;-47
2021/12/21 11:53:03;;;;;;;;;32.75;28.00;;;;;;;;5099480;27;46158;-48
2021/12/21 11:55:28;;;;;;;;;30.25;30.00;;;;;;;;5098987;27;45356;-50
2021/12/21 11:57:55;;;;;;;;;31.00;27.25;;;;;;;;5099493;27;45316;-49
2021/12/21 12:00:23;;;;;;;;;29.00;27.25;;;;;;;;5099845;27;45581;-49
2021/12/21 12:02:50;;;;;;;;;30.00;28.50;;;;;;;;5099539;27;45504;-49
2021/12/21 12:05:15;;;;;;;;;30.25;25.25;;;;;;;;5098858;27;45231;-49
2021/12/21 12:07:40;;;;;;;;;30.00;26.25;;;;;;;;5099045;27;45427;-47
2021/12/21 12:10:09;;;;;;;;;31.25;27.50;;;;;;;;5097946;27;45338;-49
2021/12/21 12:12:35;;;;;;;;;28.75;28.75;;;;;;;;5099222;27;45629;-49
2021/12/21 12:15:04;;;;;;;;;28.00;28.00;;;;;;;;5099408;27;45255;-48
2021/12/21 12:17:30;;;;;;;;;27.25;22.25;;;;;;;;5098583;27;45410;-47
2021/12/21 12:19:58;;;;;;;;;37.50;30.00;;;;;;;;5099176;27;45582;-48
2021/12/21 12:22:36;;;;;;;;;29.50;27.00;;;;;;;;5099142;27;45530;-48
2021/12/21 12:25:03;;;;;;;;;50.25;40.00;;;;;;;;5099118;27;45261;-47
2021/12/21 12:27:29;;;;;;;;;31.00;31.00;;;;;;;;5098625;27;45233;-51
2021/12/21 12:29:56;;;;;;;;;29.50;26.50;;;;;;;;5099001;27;45348;-49
2021/12/21 12:32:30;;;;;;;;;38.00;31.75;;;;;;;;5097549;27;47065;-49
2021/12/21 12:35:12;;;;;;;;;28.25;28.25;;;;;;;;5099058;27;45376;-48
2021/12/21 12:37:48;;;;;;;;;31.50;29.50;;;;;;;;5098860;27;45357;-46
2021/12/21 12:40:14;;;;;;;;;35.75;31.25;;;;;;;;5098597;27;45243;-50
2021/12/21 12:42:39;;;;;;;;;33.00;31.50;;;;;;;;5097917;27;45483;-50
2021/12/21 12:45:18;;;;;;;;;36.00;32.50;;;;;;;;5098767;27;45378;-45
2021/12/21 12:47:45;;;;;;;;;31.00;30.25;;;;;;;;5096712;27;45464;-47
2021/12/21 12:50:18;;;;;;;;;35.00;32.75;;;;;;;;5098267;27;45251;-49
2021/12/21 12:52:50;;;;;;;;;30.50;27.25;;;;;;;;5099098;27;47680;-47
2021/12/21 12:55:15;;;;;;;;;30.75;30.75;;;;;;;;5096965;27;45371;-48
2021/12/21 12:57:49;;;;;;;;;35.25;34.75;;;;;;;;5098764;27;45262;-47
2021/12/21 13:00:22;;;;;;;;;42.75;37.50;;;;;;;;5098712;27;45478;-50
2021/12/21 13:03:06;;;;;;;;;31.00;30.50;;;;;;;;5098655;27;45343;-49
2021/12/21 13:05:39;;;;;;;;;28.50;23.50;;;;;;;;5098837;27;45237;-50
2021/12/21 13:08:15;;;;;;;;;31.25;29.50;;;;;;;;5097368;27;45261;-50
2021/12/21 13:10:41;;;;;;;;;39.75;38.75;;;;;;;;5098552;27;45407;-47
2021/12/21 13:13:07;;;;;;;;;44.25;37.75;;;;;;;;5098127;27;46251;-48
2021/12/21 13:15:44;;;;;;;;;39.00;35.75;;;;;;;;5098692;27;45286;-47
2021/12/21 13:18:13;;;;;;;;;35.50;33.25;;;;;;;;5098666;27;45386;-47
2021/12/21 13:20:39;;;;;;;;;30.50;29.00;;;;;;;;5097178;27;45390;-49
2021/12/21 13:23:08;;;;;;;;;37.50;30.75;;;;;;;;5097348;27;45717;-48
2021/12/21 13:25:33;;;;;;;;;36.25;34.75;;;;;;;;5098434;27;45303;-48
2021/12/21 13:28:06;;;;;;;;;28.75;28.25;;;;;;;;5098284;27;45255;-50
2021/12/21 13:30:34;;;;;;;;;32.50;29.00;;;;;;;;5098610;27;45469;-49
2021/12/21 13:33:00;;;;;;;;;31.50;29.75;;;;;;;;5097968;27;46010;-48
2021/12/21 13:35:28;;;;;;;;;32.50;28.75;;;;;;;;5097246;27;45381;-50
2021/12/21 13:37:53;;;;;;;;;35.75;34.00;;;;;;;;5098309;27;45372;-50
2021/12/21 13:40:18;;;;;;;;;31.00;30.50;;;;;;;;5098077;27;45320;-51
2021/12/21 13:42:43;;;;;;;;;36.00;31.00;;;;;;;;5097669;27;46319;-49
2021/12/21 13:45:08;;;;;;;;;35.75;31.00;;;;;;;;5097480;27;45289;-49
2021/12/21 13:47:42;;;;;;;;;32.25;29.25;;;;;;;;5098307;27;45396;-48
2021/12/21 13:50:12;;;;;;;;;33.25;28.00;;;;;;;;5098194;27;45404;-47
2021/12/21 13:52:39;;;;;;;;;31.75;30.50;;;;;;;;5097756;27;46158;-50
2021/12/21 13:55:06;;;;;;;;;32.75;27.50;;;;;;;;5096354;27;45396;-47
2021/12/21 13:57:32;;;;;;;;;36.25;27.50;;;;;;;;5097348;27;45306;-48
2021/12/21 13:59:58;;;;;;;;;32.50;30.50;;;;;;;;5097785;27;45309;-49
2021/12/21 14:02:32;;;;;;;;;28.25;26.25;;;;;;;;5097702;27;45345;-48
2021/12/21 14:05:02;;;;;;;;;31.25;26.25;;;;;;;;5096945;27;45474;-48
2021/12/21 14:07:30;;;;;;;;;29.00;25.75;;;;;;;;5096943;27;45377;-48
2021/12/21 14:10:07;;;;;;;;;36.00;29.50;;;;;;;;5097656;27;45445;-49
2021/12/21 14:12:32;;;;;;;;;33.50;30.75;;;;;;;;5097315;27;45327;-50
2021/12/21 14:14:57;;;;;;;;;32.25;25.25;;;;;;;;5097612;27;45376;-48
2021/12/21 14:17:25;;;;;;;;;36.25;31.00;;;;;;;;5097299;27;45271;-49
2021/12/21 14:19:54;;;;;;;;;31.00;27.00;;;;;;;;5097569;27;45600;-46
2021/12/21 14:22:20;;;;;;;;;32.50;26.00;;;;;;;;5097409;27;45459;-47
2021/12/21 14:24:48;;;;;;;;;31.50;28.50;;;;;;;;5097330;27;45359;-47
2021/12/21 14:27:13;;;;;;;;;29.00;25.50;;;;;;;;5097448;27;45262;-49
2021/12/21 14:29:39;;;;;;;;;30.75;30.25;;;;;;;;5095148;27;45285;-51
2021/12/21 14:34:40;;;;;;;;;27.00;25.50;;;;;;;;5097122;27;45223;-49
2021/12/21 14:37:10;;;;;;;;;31.25;26.75;;;;;;;;5097270;27;45373;-49
2021/12/21 14:39:36;;;;;;;;;37.25;30.25;;;;;;;;5096590;27;45288;-50
2021/12/21 14:42:04;;;;;;;;;33.00;31.25;;;;;;;;5097022;27;46044;-47
2021/12/21 14:44:30;;;;;;;;;29.00;27.00;;;;;;;;5096965;27;45374;-47
2021/12/21 14:46:55;;;;;;;;;34.00;28.25;;;;;;;;5097085;27;45189;-47
2021/12/21 14:49:27;;;;;;;;;34.25;28.00;;;;;;;;5097116;27;45246;-47
2021/12/21 14:51:54;;;;;;;;;27.50;24.75;;;;;;;;5096475;27;46162;-49
2021/12/21 14:54:26;;;;;;;;;30.50;29.25;;;;;;;;5096922;27;45431;-51
2021/12/21 14:56:51;;;;;;;;;33.50;30.75;;;;;;;;5097036;27;45364;-46
2021/12/21 14:59:17;;;;;;;;;31.50;29.25;;;;;;;;5096904;27;45309;-49
2021/12/21 15:01:44;;;;;;;;;26.50;22.00;;;;;;;;5096218;27;45308;-45
2021/12/21 15:04:19;;;;;;;;;26.75;23.25;;;;;;;;5096707;27;45373;-49
2021/12/21 15:06:45;;;;;;;;;32.75;29.00;;;;;;;;5096805;27;45357;-50
2021/12/21 15:09:10;;;;;;;;;29.50;26.00;;;;;;;;5096286;27;45377;-48
2021/12/21 15:11:35;;;;;;;;;23.50;23.50;;;;;;;;5094488;27;46976;-49
2021/12/21 15:14:01;;;;;;;;;17.50;16.75;;;;;;;;5093909;27;45429;-47
2021/12/21 15:16:26;;;;;;;;;20.75;20.00;;;;;;;;5097098;27;45345;-49
2021/12/21 15:18:51;;;;;;;;;29.25;28.00;;;;;;;;5102993;27;45161;-50
2021/12/21 15:21:16;;;;;;;;;25.75;22.50;;;;;;;;5102400;27;45639;-48
2021/12/21 15:23:41;;;;;;;;;30.00;28.50;;;;;;;;5102622;27;45416;-49
2021/12/21 15:26:06;;;;;;;;;29.50;22.75;;;;;;;;5103228;27;45159;-48
2021/12/21 15:28:33;;;;;;;;;23.75;23.75;;;;;;;;5103430;27;45292;-49
2021/12/21 15:30:59;;;;;;;;;21.50;21.50;;;;;;;;5102444;27;46465;-47